Time;durP1;ratioP1;P1;durP2;ratioP2;P2;SDS_P1;SDS_P2;PMS_P1;PMS_P2;Temp;Humidity;BMP_temperature;BMP_pressure;BME280_temperature;BME280_humidity;BME280_pressure;Samples;Min_cycle;Max_cycle;Signal;HPM_P1;HPM_P2
2022/07/29 00:01:29;;;;;;;2.65;1.20;;;;;;;;;;5001974;28;20116;-72
2022/07/29 00:03:55;;;;;;;2.97;1.20;;;;;;;;;;5001204;28;20507;-73
2022/07/29 00:06:20;;;;;;;2.85;1.05;;;;;;;;;;4999784;28;20026;-73
2022/07/29 00:08:46;;;;;;;2.90;1.20;;;;;;;;;;5005464;28;20175;-73
2022/07/29 00:11:11;;;;;;;2.70;0.95;;;;;;;;;;5003923;28;20104;-73
2022/07/29 00:13:37;;;;;;;2.50;1.10;;;;;;;;;;5004241;28;20038;-73
2022/07/29 00:16:02;;;;;;;1.98;1.10;;;;;;;;;;5002921;28;20524;-73
2022/07/29 00:18:28;;;;;;;2.28;1.10;;;;;;;;;;5000158;28;20041;-73
2022/07/29 00:20:53;;;;;;;1.67;1.17;;;;;;;;;;5003655;28;20045;-74
2022/07/29 00:23:19;;;;;;;1.95;1.00;;;;;;;;;;5001607;28;20037;-73
2022/07/29 00:25:44;;;;;;;2.50;1.13;;;;;;;;;;5008296;28;20112;-73
2022/07/29 00:28:09;;;;;;;3.47;1.02;;;;;;;;;;5001198;28;20041;-72
2022/07/29 00:30:35;;;;;;;1.35;1.00;;;;;;;;;;4998750;28;20034;-73
2022/07/29 00:33:00;;;;;;;2.80;1.13;;;;;;;;;;5000391;28;20092;-73
2022/07/29 00:35:44;;;;;;;3.60;1.00;;;;;;;;;;5003133;28;20037;-72
2022/07/29 00:38:11;;;;;;;2.63;1.10;;;;;;;;;;4998123;28;20049;-73
2022/07/29 00:40:37;;;;;;;2.78;1.10;;;;;;;;;;4995294;28;20105;-73
2022/07/29 00:43:02;;;;;;;1.08;0.80;;;;;;;;;;5005748;28;20553;-73
2022/07/29 00:45:29;;;;;;;4.22;1.08;;;;;;;;;;4999244;28;20112;-72
2022/07/29 00:47:55;;;;;;;1.98;1.10;;;;;;;;;;5004997;28;20037;-72
2022/07/29 00:50:20;;;;;;;4.88;1.15;;;;;;;;;;4999714;28;20063;-73
2022/07/29 00:52:46;;;;;;;2.88;1.20;;;;;;;;;;5004991;28;20022;-72
2022/07/29 00:55:15;;;;;;;1.65;0.90;;;;;;;;;;5000051;28;20486;-73
2022/07/29 00:57:42;;;;;;;1.20;0.80;;;;;;;;;;5013490;28;20054;-71
2022/07/29 01:00:10;;;;;;;2.03;0.90;;;;;;;;;;4989809;28;20112;-71
2022/07/29 01:02:36;;;;;;;4.78;0.90;;;;;;;;;;5006097;28;20388;-71
2022/07/29 01:05:03;;;;;;;1.73;0.80;;;;;;;;;;5008309;28;20026;-73
2022/07/29 01:07:30;;;;;;;2.80;1.00;;;;;;;;;;5007534;28;20026;-73
2022/07/29 01:09:56;;;;;;;2.85;1.02;;;;;;;;;;5004983;28;20038;-73
2022/07/29 01:12:25;;;;;;;2.13;0.90;;;;;;;;;;5006393;28;20026;-73
2022/07/29 01:14:51;;;;;;;2.90;1.15;;;;;;;;;;5001573;28;20048;-73
2022/07/29 01:17:36;;;;;;;1.92;0.73;;;;;;;;;;5014024;28;20112;-72
2022/07/29 01:20:30;;;;;;;1.30;0.90;;;;;;;;;;5015236;28;20287;-72
2022/07/29 01:23:13;;;;;;;2.80;1.05;;;;;;;;;;4962728;28;20073;-72
2022/07/29 01:26:03;;;;;;;3.15;1.00;;;;;;;;;;5014723;28;20092;-73
2022/07/29 01:28:48;;;;;;;1.88;0.90;;;;;;;;;;5002039;28;20180;-73
2022/07/29 01:31:18;;;;;;;2.28;1.10;;;;;;;;;;5001225;28;20080;-73
2022/07/29 01:33:54;;;;;;;2.65;1.10;;;;;;;;;;5006186;28;20029;-73
2022/07/29 01:36:27;;;;;;;2.15;0.90;;;;;;;;;;5006638;28;20046;-73
2022/07/29 01:39:04;;;;;;;;;;;;;;;;;;5000338;28;20041;-74
2022/07/29 01:41:34;;;;;;;3.40;1.00;;;;;;;;;;5002110;28;19933;-73
2022/07/29 01:44:10;;;;;;;1.20;0.80;;;;;;;;;;4999795;28;20119;-73
2022/07/29 01:46:38;;;;;;;2.20;1.00;;;;;;;;;;5001930;28;20050;-73
2022/07/29 01:49:13;;;;;;;2.30;1.00;;;;;;;;;;5000590;28;20049;-72
2022/07/29 01:51:47;;;;;;;3.15;1.20;;;;;;;;;;4996523;28;20026;-73
2022/07/29 01:54:19;;;;;;;2.08;1.15;;;;;;;;;;4999470;28;20029;-73
2022/07/29 01:56:48;;;;;;;1.77;1.00;;;;;;;;;;4997879;28;20505;-73
2022/07/29 01:59:16;;;;;;;2.78;1.00;;;;;;;;;;5001373;28;20030;-73
2022/07/29 02:01:44;;;;;;;1.52;1.00;;;;;;;;;;4996808;28;20025;-73
2022/07/29 02:04:11;;;;;;;2.55;1.17;;;;;;;;;;5009066;28;20112;-73
2022/07/29 02:06:38;;;;;;;2.42;1.10;;;;;;;;;;5008026;28;20030;-72
2022/07/29 02:09:04;;;;;;;3.25;1.10;;;;;;;;;;5006376;28;20034;-73
2022/07/29 02:11:33;;;;;;;2.95;1.10;;;;;;;;;;5000912;28;20038;-73
2022/07/29 02:14:00;;;;;;;2.45;1.20;;;;;;;;;;5014784;28;20045;-73
2022/07/29 02:16:28;;;;;;;2.63;1.20;;;;;;;;;;5005691;28;20030;-71
2022/07/29 02:18:55;;;;;;;2.67;1.15;;;;;;;;;;5005811;28;20022;-73
2022/07/29 02:21:25;;;;;;;1.95;1.05;;;;;;;;;;5002973;28;21979;-73
2022/07/29 02:23:52;;;;;;;2.50;1.10;;;;;;;;;;4999502;28;20040;-74
2022/07/29 02:26:21;;;;;;;2.53;1.35;;;;;;;;;;5001412;28;21375;-73
2022/07/29 02:28:49;;;;;;;3.30;1.70;;;;;;;;;;5003750;28;20021;-74
2022/07/29 02:31:19;;;;;;;3.10;1.08;;;;;;;;;;5002666;28;20045;-73
2022/07/29 02:33:46;;;;;;;2.58;1.08;;;;;;;;;;4998183;28;20056;-74
2022/07/29 02:36:13;;;;;;;2.78;1.02;;;;;;;;;;5004817;28;20570;-73
2022/07/29 02:38:50;;;;;;;2.40;1.17;;;;;;;;;;5006726;28;20034;-72
2022/07/29 02:41:19;;;;;;;2.85;1.20;;;;;;;;;;5004127;28;20030;-73
2022/07/29 02:43:47;;;;;;;2.00;1.10;;;;;;;;;;5007245;28;20026;-74
2022/07/29 02:46:16;;;;;;;1.60;1.02;;;;;;;;;;4994088;28;22755;-73
2022/07/29 02:48:51;;;;;;;4.10;1.30;;;;;;;;;;4996525;28;20037;-73
2022/07/29 02:51:27;;;;;;;2.35;1.30;;;;;;;;;;4995881;28;20109;-74
2022/07/29 02:53:56;;;;;;;3.15;1.48;;;;;;;;;;4997359;28;20026;-73
2022/07/29 02:56:27;;;;;;;2.63;1.30;;;;;;;;;;4992689;28;20033;-74
2022/07/29 02:58:59;;;;;;;3.75;1.42;;;;;;;;;;5012283;28;20041;-74
2022/07/29 03:01:29;;;;;;;2.90;1.42;;;;;;;;;;5001063;28;20021;-72
2022/07/29 03:03:55;;;;;;;2.30;1.25;;;;;;;;;;5005038;28;20029;-73
2022/07/29 03:06:23;;;;;;;2.25;1.10;;;;;;;;;;5003000;28;20387;-73
2022/07/29 03:08:50;;;;;;;3.55;1.35;;;;;;;;;;5007559;28;20060;-73
2022/07/29 03:11:17;;;;;;;2.30;1.30;;;;;;;;;;5016836;28;20037;-73
2022/07/29 03:13:43;;;;;;;2.22;1.33;;;;;;;;;;5004108;28;20458;-72
2022/07/29 03:16:10;;;;;;;2.95;1.40;;;;;;;;;;4999621;28;20041;-73
2022/07/29 03:18:37;;;;;;;2.65;1.30;;;;;;;;;;5003230;28;20148;-73
2022/07/29 03:21:03;;;;;;;2.08;1.33;;;;;;;;;;4999529;28;20042;-73
2022/07/29 03:23:28;;;;;;;2.78;1.38;;;;;;;;;;5002101;28;20033;-74
2022/07/29 03:25:54;;;;;;;2.83;1.40;;;;;;;;;;5002668;28;20084;-72
2022/07/29 03:28:20;;;;;;;2.63;1.35;;;;;;;;;;5002852;28;20510;-72
2022/07/29 03:30:46;;;;;;;2.83;1.50;;;;;;;;;;4995992;28;20147;-73
2022/07/29 03:33:12;;;;;;;4.15;1.60;;;;;;;;;;4999399;28;20105;-72
2022/07/29 03:35:38;;;;;;;1.95;1.33;;;;;;;;;;5006015;28;20185;-73
2022/07/29 03:38:03;;;;;;;2.13;1.40;;;;;;;;;;5005790;28;20076;-73
2022/07/29 03:40:51;;;;;;;2.67;1.30;;;;;;;;;;5005361;28;20064;-73
2022/07/29 03:43:18;;;;;;;2.60;1.52;;;;;;;;;;5006143;28;20040;-73
2022/07/29 03:45:47;;;;;;;5.30;1.70;;;;;;;;;;4997893;28;20038;-73
2022/07/29 03:48:15;;;;;;;2.60;1.58;;;;;;;;;;4999703;28;20073;-73
2022/07/29 03:50:41;;;;;;;3.67;1.50;;;;;;;;;;5002445;28;20112;-73
2022/07/29 03:53:07;;;;;;;4.25;1.40;;;;;;;;;;5002078;28;20029;-74
2022/07/29 03:55:39;;;;;;;2.10;1.30;;;;;;;;;;5005581;28;20497;-73
2022/07/29 03:58:06;;;;;;;3.45;1.30;;;;;;;;;;5004437;28;20021;-73
2022/07/29 04:00:33;;;;;;;2.90;1.50;;;;;;;;;;4999652;28;20113;-73
2022/07/29 04:02:58;;;;;;;3.55;1.58;;;;;;;;;;5001137;28;20038;-74
2022/07/29 04:05:24;;;;;;;2.47;1.60;;;;;;;;;;5005869;28;20363;-72
2022/07/29 04:07:49;;;;;;;2.58;1.48;;;;;;;;;;5003088;28;20053;-73
2022/07/29 04:10:16;;;;;;;2.08;1.33;;;;;;;;;;5005088;28;20060;-72
2022/07/29 04:12:42;;;;;;;3.00;1.40;;;;;;;;;;5002824;28;22377;-73
2022/07/29 04:15:08;;;;;;;1.58;1.30;;;;;;;;;;4997962;28;20030;-73
2022/07/29 04:17:33;;;;;;;3.78;1.83;;;;;;;;;;5003027;28;20034;-72
2022/07/29 04:19:59;;;;;;;3.97;1.38;;;;;;;;;;5001254;28;20335;-73
2022/07/29 04:22:24;;;;;;;2.67;1.50;;;;;;;;;;5000070;28;20449;-73
2022/07/29 04:24:50;;;;;;;4.00;1.65;;;;;;;;;;4997309;28;20018;-74
2022/07/29 04:27:15;;;;;;;3.30;1.60;;;;;;;;;;5001928;28;20025;-73
2022/07/29 04:29:41;;;;;;;2.83;1.67;;;;;;;;;;4999158;28;20093;-72
2022/07/29 04:32:06;;;;;;;2.53;1.70;;;;;;;;;;5001610;28;20406;-73
2022/07/29 04:34:31;;;;;;;3.20;1.55;;;;;;;;;;5002696;28;20029;-73
2022/07/29 04:36:57;;;;;;;4.28;1.90;;;;;;;;;;5005453;28;20073;-72
2022/07/29 04:39:23;;;;;;;3.83;1.80;;;;;;;;;;5002115;28;20034;-73
2022/07/29 04:41:49;;;;;;;4.63;1.80;;;;;;;;;;5006510;28;20057;-72
2022/07/29 04:44:15;;;;;;;2.22;1.58;;;;;;;;;;5000134;28;20042;-73
2022/07/29 04:46:40;;;;;;;4.95;1.65;;;;;;;;;;5007616;28;20026;-72
2022/07/29 04:49:06;;;;;;;3.05;1.42;;;;;;;;;;5008482;28;20385;-73
2022/07/29 04:51:31;;;;;;;3.00;1.73;;;;;;;;;;5002570;28;20026;-73
2022/07/29 04:53:56;;;;;;;3.50;1.60;;;;;;;;;;5004620;28;20034;-72
2022/07/29 04:56:22;;;;;;;3.83;1.98;;;;;;;;;;5005846;28;20022;-74
2022/07/29 04:58:47;;;;;;;3.28;1.80;;;;;;;;;;5004476;28;20041;-73
2022/07/29 05:01:14;;;;;;;3.95;1.90;;;;;;;;;;5006377;28;20022;-73
2022/07/29 05:03:39;;;;;;;4.82;1.90;;;;;;;;;;5007389;28;20034;-73
2022/07/29 05:06:05;;;;;;;2.67;1.70;;;;;;;;;;5008041;28;20055;-73
2022/07/29 05:08:30;;;;;;;3.80;1.50;;;;;;;;;;5003081;28;20037;-73
2022/07/29 05:10:55;;;;;;;2.92;1.70;;;;;;;;;;5005099;28;20018;-74
2022/07/29 05:13:21;;;;;;;3.53;1.70;;;;;;;;;;5008391;28;20037;-73
2022/07/29 05:15:46;;;;;;;4.32;1.70;;;;;;;;;;5005684;28;20026;-73
2022/07/29 05:18:11;;;;;;;2.45;1.45;;;;;;;;;;4998118;28;20065;-72
2022/07/29 05:20:37;;;;;;;2.92;1.60;;;;;;;;;;5004594;28;20398;-73
2022/07/29 05:23:03;;;;;;;3.25;1.60;;;;;;;;;;5002289;28;20502;-73
2022/07/29 05:25:29;;;;;;;2.33;1.50;;;;;;;;;;5007754;28;20026;-73
2022/07/29 05:27:55;;;;;;;3.60;1.80;;;;;;;;;;5006313;28;20020;-73
2022/07/29 05:30:21;;;;;;;2.72;1.50;;;;;;;;;;5004137;28;20048;-73
2022/07/29 05:32:46;;;;;;;4.15;1.83;;;;;;;;;;5007557;28;20565;-73
2022/07/29 05:35:13;;;;;;;2.90;1.77;;;;;;;;;;5011199;28;20037;-73
2022/07/29 05:37:39;;;;;;;4.68;1.67;;;;;;;;;;5007401;28;20517;-72
2022/07/29 05:40:05;;;;;;;2.97;1.88;;;;;;;;;;5002109;28;20034;-73
2022/07/29 05:42:30;;;;;;;4.95;2.00;;;;;;;;;;4999463;28;20398;-73
2022/07/29 05:44:56;;;;;;;3.00;1.58;;;;;;;;;;5000306;28;20037;-73
2022/07/29 05:47:22;;;;;;;3.95;2.00;;;;;;;;;;4995825;28;20022;-73
2022/07/29 05:49:47;;;;;;;4.55;1.65;;;;;;;;;;5006544;28;20125;-73
2022/07/29 05:52:13;;;;;;;3.30;1.67;;;;;;;;;;5000453;28;20040;-73
2022/07/29 05:54:39;;;;;;;3.20;2.15;;;;;;;;;;5001888;28;20021;-73
2022/07/29 05:57:05;;;;;;;4.00;1.85;;;;;;;;;;5000894;28;20136;-73
2022/07/29 05:59:31;;;;;;;2.78;1.92;;;;;;;;;;4996886;28;20553;-73
2022/07/29 06:01:57;;;;;;;2.90;1.63;;;;;;;;;;5001492;28;20088;-73
2022/07/29 06:04:22;;;;;;;3.35;2.00;;;;;;;;;;4998211;28;20386;-73
2022/07/29 06:06:48;;;;;;;3.33;1.67;;;;;;;;;;5015042;28;20028;-73
2022/07/29 06:09:13;;;;;;;3.83;1.92;;;;;;;;;;5002949;28;20042;-73
2022/07/29 06:11:39;;;;;;;3.65;1.80;;;;;;;;;;5005517;28;20122;-72
2022/07/29 06:14:04;;;;;;;3.75;1.88;;;;;;;;;;5004673;28;20485;-73
2022/07/29 06:16:30;;;;;;;3.70;1.90;;;;;;;;;;5000633;28;20030;-72
2022/07/29 06:18:55;;;;;;;3.58;1.77;;;;;;;;;;5002137;28;20381;-73
2022/07/29 06:21:20;;;;;;;3.65;2.00;;;;;;;;;;5000794;28;20037;-73
2022/07/29 06:23:46;;;;;;;3.03;1.75;;;;;;;;;;5005792;28;20029;-72
2022/07/29 06:26:11;;;;;;;3.85;1.80;;;;;;;;;;5005114;28;20033;-73
2022/07/29 06:28:37;;;;;;;4.43;1.60;;;;;;;;;;5003405;28;20099;-73
2022/07/29 06:31:02;;;;;;;2.92;1.70;;;;;;;;;;4999003;28;20367;-73
2022/07/29 06:33:28;;;;;;;3.25;1.95;;;;;;;;;;5005457;28;20121;-73
2022/07/29 06:35:53;;;;;;;3.25;1.85;;;;;;;;;;5003692;28;20045;-73
2022/07/29 06:38:18;;;;;;;4.40;2.22;;;;;;;;;;5001242;28;20029;-73
2022/07/29 06:41:00;;;;;;;3.35;1.90;;;;;;;;;;5001322;28;20022;-73
2022/07/29 06:43:34;;;;;;;4.43;2.20;;;;;;;;;;5005181;28;20272;-73
2022/07/29 06:46:05;;;;;;;2.60;2.00;;;;;;;;;;4998201;28;20120;-74
2022/07/29 06:48:31;;;;;;;4.35;2.15;;;;;;;;;;4998672;28;20079;-73
2022/07/29 06:50:57;;;;;;;3.42;2.20;;;;;;;;;;5005181;28;20470;-73
2022/07/29 06:53:23;;;;;;;4.25;2.45;;;;;;;;;;5003454;28;20021;-73
2022/07/29 06:55:49;;;;;;;2.95;1.90;;;;;;;;;;4998486;28;20394;-73
2022/07/29 06:58:15;;;;;;;3.53;2.03;;;;;;;;;;5000621;28;20018;-73
2022/07/29 07:00:41;;;;;;;3.45;2.10;;;;;;;;;;5004274;28;20033;-72
2022/07/29 07:03:07;;;;;;;3.10;2.17;;;;;;;;;;5002838;28;20037;-73
2022/07/29 07:05:32;;;;;;;5.50;2.30;;;;;;;;;;4998735;28;20029;-73
2022/07/29 07:07:57;;;;;;;3.50;2.25;;;;;;;;;;5006421;28;20374;-73
2022/07/29 07:10:23;;;;;;;3.47;2.38;;;;;;;;;;5012199;28;20382;-73
2022/07/29 07:12:48;;;;;;;3.50;1.98;;;;;;;;;;5007991;28;20049;-73
2022/07/29 07:15:14;;;;;;;3.30;2.10;;;;;;;;;;5009792;28;20456;-73
2022/07/29 07:17:39;;;;;;;3.20;1.80;;;;;;;;;;5005922;28;20034;-73
2022/07/29 07:20:05;;;;;;;3.13;1.75;;;;;;;;;;5007970;28;20026;-73
2022/07/29 07:22:31;;;;;;;3.85;2.10;;;;;;;;;;5006074;28;20034;-75
2022/07/29 07:24:56;;;;;;;3.22;1.73;;;;;;;;;;5011311;28;20036;-72
2022/07/29 07:27:22;;;;;;;5.03;1.92;;;;;;;;;;5004130;28;20037;-74
2022/07/29 07:29:47;;;;;;;2.97;1.67;;;;;;;;;;5009243;28;20030;-73
2022/07/29 07:32:15;;;;;;;4.00;1.80;;;;;;;;;;5006936;28;20022;-73
2022/07/29 07:34:41;;;;;;;3.20;2.20;;;;;;;;;;5003184;28;20041;-73
2022/07/29 07:37:06;;;;;;;4.85;2.20;;;;;;;;;;5004285;28;20042;-74
2022/07/29 07:39:32;;;;;;;3.42;1.73;;;;;;;;;;5004457;28;20447;-74
2022/07/29 07:41:58;;;;;;;4.53;2.35;;;;;;;;;;5002038;28;20040;-74
2022/07/29 07:44:24;;;;;;;3.20;2.05;;;;;;;;;;5000732;28;20080;-74
2022/07/29 07:46:49;;;;;;;3.67;2.03;;;;;;;;;;5003663;28;20022;-74
2022/07/29 07:49:14;;;;;;;2.67;1.70;;;;;;;;;;5006443;28;20493;-74
2022/07/29 07:51:40;;;;;;;4.82;2.47;;;;;;;;;;5003755;28;20034;-74
2022/07/29 07:54:05;;;;;;;3.38;2.38;;;;;;;;;;5007724;28;20064;-73
2022/07/29 07:56:31;;;;;;;2.75;2.00;;;;;;;;;;5006039;28;20021;-73
2022/07/29 07:58:56;;;;;;;6.10;2.65;;;;;;;;;;5006094;28;20045;-74
2022/07/29 08:01:22;;;;;;;4.55;2.17;;;;;;;;;;5005700;28;20064;-74
2022/07/29 08:03:49;;;;;;;4.50;2.80;;;;;;;;;;5008050;28;20026;-74
2022/07/29 08:06:14;;;;;;;6.75;2.40;;;;;;;;;;5002626;28;20029;-74
2022/07/29 08:08:40;;;;;;;4.18;2.00;;;;;;;;;;5008111;28;20072;-74
2022/07/29 08:11:06;;;;;;;5.47;3.03;;;;;;;;;;5003645;28;20045;-74
2022/07/29 08:13:31;;;;;;;4.30;2.78;;;;;;;;;;5021595;28;20034;-73
2022/07/29 08:15:57;;;;;;;5.60;2.95;;;;;;;;;;5003782;28;20030;-72
2022/07/29 08:18:24;;;;;;;5.97;3.22;;;;;;;;;;5009521;28;20061;-72
2022/07/29 08:20:50;;;;;;;5.18;3.42;;;;;;;;;;5005490;28;20463;-74
2022/07/29 08:23:16;;;;;;;5.43;3.60;;;;;;;;;;5008297;28;20053;-74
2022/07/29 08:25:41;;;;;;;6.13;3.53;;;;;;;;;;5004100;28;20025;-73
2022/07/29 08:28:07;;;;;;;4.68;2.83;;;;;;;;;;5003971;28;20022;-73
2022/07/29 08:30:33;;;;;;;4.15;3.00;;;;;;;;;;5008680;28;20065;-74
2022/07/29 08:32:59;;;;;;;5.28;2.78;;;;;;;;;;5002114;28;20061;-73
2022/07/29 08:35:25;;;;;;;7.70;2.97;;;;;;;;;;5003642;28;20037;-74
2022/07/29 08:37:51;;;;;;;4.15;2.85;;;;;;;;;;5003145;28;20125;-74
2022/07/29 08:40:17;;;;;;;3.83;2.65;;;;;;;;;;5008026;28;20437;-73
2022/07/29 08:42:43;;;;;;;6.28;3.03;;;;;;;;;;5002572;28;20037;-74
2022/07/29 08:45:10;;;;;;;6.43;2.80;;;;;;;;;;5004834;28;20022;-73
2022/07/29 08:47:39;;;;;;;4.47;3.00;;;;;;;;;;5004510;28;20525;-73
2022/07/29 08:50:07;;;;;;;4.00;2.38;;;;;;;;;;5006624;28;20026;-74
2022/07/29 08:52:38;;;;;;;4.63;2.80;;;;;;;;;;5001937;28;20029;-74
2022/07/29 08:55:09;;;;;;;3.90;2.60;;;;;;;;;;5002032;28;20155;-74
2022/07/29 08:57:35;;;;;;;4.95;2.45;;;;;;;;;;5016753;28;20486;-73
2022/07/29 09:00:04;;;;;;;3.72;2.80;;;;;;;;;;4999886;28;20034;-74
2022/07/29 09:02:35;;;;;;;4.68;2.70;;;;;;;;;;5008307;28;20034;-74
2022/07/29 09:05:02;;;;;;;6.53;2.80;;;;;;;;;;5000815;28;20491;-73
2022/07/29 09:07:27;;;;;;;5.57;2.63;;;;;;;;;;5002193;28;20029;-74
2022/07/29 09:09:53;;;;;;;3.92;2.47;;;;;;;;;;5007737;28;20394;-72
2022/07/29 09:12:19;;;;;;;5.45;2.50;;;;;;;;;;5003575;28;20035;-75
2022/07/29 09:14:45;;;;;;;6.30;3.13;;;;;;;;;;5007548;28;20053;-72
2022/07/29 09:17:10;;;;;;;3.88;2.40;;;;;;;;;;5001066;28;20038;-74
2022/07/29 09:19:37;;;;;;;4.97;2.40;;;;;;;;;;5008943;28;20030;-74
2022/07/29 09:22:06;;;;;;;3.92;2.83;;;;;;;;;;5006621;28;20096;-74
2022/07/29 09:24:42;;;;;;;4.85;2.58;;;;;;;;;;5011527;28;20394;-74
2022/07/29 09:27:28;;;;;;;6.47;3.50;;;;;;;;;;5008113;28;20153;-74
2022/07/29 09:29:58;;;;;;;4.20;2.55;;;;;;;;;;5011972;28;20029;-74
2022/07/29 09:32:24;;;;;;;4.57;2.33;;;;;;;;;;4999384;28;20395;-72
2022/07/29 09:34:49;;;;;;;4.13;2.60;;;;;;;;;;5006214;28;20034;-74
2022/07/29 09:37:43;;;;;;;4.20;2.20;;;;;;;;;;5012047;28;20088;-74
2022/07/29 09:40:12;;;;;;;;;;;;;;;;;;5010233;28;20124;-74
2022/07/29 09:42:38;;;;;;;3.50;1.98;;;;;;;;;;5008642;28;19913;-72
2022/07/29 09:45:03;;;;;;;3.85;2.28;;;;;;;;;;5007929;28;20038;-74
2022/07/29 09:48:17;;;;;;;5.22;2.40;;;;;;;;;;5013396;28;20030;-73
2022/07/29 09:50:43;;;;;;;;;;;;;;;;;;4986073;28;20038;-73
2022/07/29 09:53:10;;;;;;;3.95;2.17;;;;;;;;;;5010376;28;19913;-74
2022/07/29 09:55:49;;;;;;;5.10;2.72;;;;;;;;;;5013918;28;20528;-74
2022/07/29 09:58:21;;;;;;;3.78;1.60;;;;;;;;;;5009281;28;20105;-73
2022/07/29 10:00:47;;;;;;;4.43;1.90;;;;;;;;;;5012990;28;20504;-73
2022/07/29 10:03:15;;;;;;;5.07;2.40;;;;;;;;;;5012653;28;20030;-74
2022/07/29 10:05:41;;;;;;;4.70;1.90;;;;;;;;;;5010416;28;20034;-74
2022/07/29 10:08:08;;;;;;;4.07;2.70;;;;;;;;;;5012005;28;20029;-74
2022/07/29 10:10:39;;;;;;;3.60;1.80;;;;;;;;;;5013693;28;20504;-75
2022/07/29 10:13:08;;;;;;;2.17;1.40;;;;;;;;;;5004536;28;20386;-74
2022/07/29 10:15:43;;;;;;;3.80;1.70;;;;;;;;;;5013526;28;20036;-73
2022/07/29 10:18:11;;;;;;;3.92;1.80;;;;;;;;;;5012103;28;20057;-74
2022/07/29 10:20:37;;;;;;;4.28;1.45;;;;;;;;;;5001977;28;20038;-74
2022/07/29 10:23:04;;;;;;;5.68;1.85;;;;;;;;;;5013816;28;20022;-74
2022/07/29 10:25:30;;;;;;;3.17;1.90;;;;;;;;;;5008771;28;20034;-74
2022/07/29 10:27:55;;;;;;;3.85;1.50;;;;;;;;;;5001149;28;20112;-74
2022/07/29 10:30:22;;;;;;;4.07;1.52;;;;;;;;;;5008463;28;20132;-74
2022/07/29 10:33:25;;;;;;;4.53;2.40;;;;;;;;;;5005104;28;20030;-73
2022/07/29 10:36:28;;;;;;;4.13;1.80;;;;;;;;;;5000620;28;20030;-73
2022/07/29 10:39:15;;;;;;;3.40;1.58;;;;;;;;;;5000507;28;20049;-73
2022/07/29 10:42:01;;;;;;;3.50;1.70;;;;;;;;;;4997917;28;20056;-74
2022/07/29 10:44:28;;;;;;;4.78;1.75;;;;;;;;;;5013405;28;20540;-73
2022/07/29 10:46:54;;;;;;;3.60;1.40;;;;;;;;;;5008714;28;20052;-73
2022/07/29 10:49:24;;;;;;;4.55;1.67;;;;;;;;;;5002562;28;21806;-74
2022/07/29 10:52:03;;;;;;;3.75;1.60;;;;;;;;;;5009905;28;20049;-73
2022/07/29 10:54:48;;;;;;;3.50;1.55;;;;;;;;;;5011311;28;20048;-72
2022/07/29 10:57:30;;;;;;;4.00;2.00;;;;;;;;;;5011310;28;20429;-73
2022/07/29 11:00:05;;;;;;;;;;;;;;;;;;5010556;28;20021;-73
2022/07/29 11:02:34;;;;;;;3.78;1.70;;;;;;;;;;5003892;28;20063;-74
2022/07/29 11:05:08;;;;;;;3.63;1.60;;;;;;;;;;5006505;28;20394;-73
2022/07/29 11:07:35;;;;;;;2.88;1.42;;;;;;;;;;5011836;28;20032;-73
2022/07/29 11:10:12;;;;;;;3.10;1.50;;;;;;;;;;5012900;28;20092;-72
2022/07/29 11:12:38;;;;;;;6.40;2.00;;;;;;;;;;5012141;28;20029;-73
2022/07/29 11:15:05;;;;;;;3.90;2.20;;;;;;;;;;5011834;28;20048;-74
2022/07/29 11:17:53;;;;;;;5.18;1.70;;;;;;;;;;5011068;28;20030;-73
2022/07/29 11:20:37;;;;;;;4.18;1.80;;;;;;;;;;5006433;28;20075;-74
2022/07/29 11:23:18;;;;;;;4.22;2.20;;;;;;;;;;5004912;28;20057;-73
2022/07/29 11:25:44;;;;;;;6.18;2.20;;;;;;;;;;5025585;28;20068;-73
2022/07/29 11:28:19;;;;;;;7.18;1.75;;;;;;;;;;5000572;28;20055;-74
2022/07/29 11:30:51;;;;;;;3.45;1.95;;;;;;;;;;4997672;28;20100;-73
2022/07/29 11:33:32;;;;;;;;;;;;;;;;;;5006073;28;20383;-74
2022/07/29 11:36:11;;;;;;;4.10;2.10;;;;;;;;;;4999055;28;20416;-75
2022/07/29 11:38:37;;;;;;;6.00;2.58;;;;;;;;;;5006191;28;20480;-73
2022/07/29 11:41:29;;;;;;;4.55;1.95;;;;;;;;;;5002026;28;20124;-74
2022/07/29 11:43:59;;;;;;;4.20;1.88;;;;;;;;;;5007131;28;20067;-73
2022/07/29 11:46:48;;;;;;;3.55;2.03;;;;;;;;;;5007202;28;20029;-73
2022/07/29 11:49:19;;;;;;;4.28;1.75;;;;;;;;;;5009964;28;20022;-73
2022/07/29 11:51:50;;;;;;;4.20;1.75;;;;;;;;;;5003748;28;20338;-74
2022/07/29 11:54:24;;;;;;;3.45;1.80;;;;;;;;;;5002749;28;20037;-73
2022/07/29 11:56:50;;;;;;;2.92;1.90;;;;;;;;;;5003567;28;20038;-74
2022/07/29 11:59:16;;;;;;;3.40;2.15;;;;;;;;;;5007949;28;20018;-73
2022/07/29 12:01:59;;;;;;;4.20;1.90;;;;;;;;;;5006685;28;20076;-73
2022/07/29 12:04:26;;;;;;;3.58;1.80;;;;;;;;;;5005633;28;20029;-73
2022/07/29 12:06:52;;;;;;;3.97;2.38;;;;;;;;;;5006638;28;20041;-75
2022/07/29 12:09:19;;;;;;;4.13;1.90;;;;;;;;;;5006846;28;20034;-73
2022/07/29 12:11:46;;;;;;;3.15;2.30;;;;;;;;;;5004998;28;20030;-73
2022/07/29 12:14:31;;;;;;;3.35;1.85;;;;;;;;;;5003986;28;20072;-73
2022/07/29 12:16:58;;;;;;;3.15;1.45;;;;;;;;;;4996181;28;20085;-73
2022/07/29 12:19:24;;;;;;;4.03;1.90;;;;;;;;;;4995843;28;20530;-73
2022/07/29 12:21:52;;;;;;;4.55;1.50;;;;;;;;;;5001669;28;20029;-74
2022/07/29 12:24:18;;;;;;;3.88;1.75;;;;;;;;;;4997961;28;20101;-73
2022/07/29 12:26:52;;;;;;;2.42;1.40;;;;;;;;;;4997102;28;20537;-73
2022/07/29 12:29:18;;;;;;;4.28;1.70;;;;;;;;;;4996770;28;20445;-73
2022/07/29 12:31:46;;;;;;;3.60;1.92;;;;;;;;;;4995977;28;20034;-74
2022/07/29 12:34:13;;;;;;;2.72;1.30;;;;;;;;;;4996569;28;20030;-74
2022/07/29 12:36:40;;;;;;;4.35;2.08;;;;;;;;;;4998003;28;20569;-73
2022/07/29 12:39:05;;;;;;;4.72;1.85;;;;;;;;;;4999527;28;20042;-74
2022/07/29 12:41:31;;;;;;;3.63;1.90;;;;;;;;;;4999912;28;20045;-74
2022/07/29 12:43:56;;;;;;;5.28;2.42;;;;;;;;;;4996760;28;20030;-73
2022/07/29 12:46:22;;;;;;;4.88;2.28;;;;;;;;;;4992146;28;20058;-73
2022/07/29 12:48:54;;;;;;;5.72;1.98;;;;;;;;;;4995148;28;20100;-74
2022/07/29 12:51:33;;;;;;;4.35;2.25;;;;;;;;;;4992596;28;20026;-74
2022/07/29 12:54:15;;;;;;;3.53;1.80;;;;;;;;;;4995449;28;20034;-74
2022/07/29 12:56:43;;;;;;;2.77;1.93;;;;;;;;;;4999253;28;20029;-73
2022/07/29 12:59:27;;;;;;;3.40;1.88;;;;;;;;;;4999157;28;20042;-73
2022/07/29 13:01:52;;;;;;;4.32;1.80;;;;;;;;;;4986229;28;20145;-74
2022/07/29 13:04:27;;;;;;;3.38;1.70;;;;;;;;;;4994449;28;20032;-74
2022/07/29 13:07:07;;;;;;;3.83;2.05;;;;;;;;;;4996889;28;20025;-74
2022/07/29 13:09:45;;;;;;;4.38;1.77;;;;;;;;;;4994734;28;20064;-73
2022/07/29 13:12:13;;;;;;;4.80;1.75;;;;;;;;;;4996493;28;20048;-74
2022/07/29 13:14:49;;;;;;;3.72;2.30;;;;;;;;;;4999370;28;20049;-74
2022/07/29 13:17:17;;;;;;;4.50;2.50;;;;;;;;;;5002838;28;20029;-73
2022/07/29 13:19:50;;;;;;;3.60;2.50;;;;;;;;;;4994196;28;20125;-74
2022/07/29 13:22:21;;;;;;;5.40;2.40;;;;;;;;;;5016786;28;20022;-73
2022/07/29 13:24:54;;;;;;;3.78;2.28;;;;;;;;;;5011348;28;20047;-74
2022/07/29 13:27:27;;;;;;;5.10;2.50;;;;;;;;;;4997216;28;20061;-73
2022/07/29 13:29:56;;;;;;;5.40;2.88;;;;;;;;;;4995970;28;20042;-73
2022/07/29 13:32:22;;;;;;;4.10;2.55;;;;;;;;;;5001540;28;20036;-74
2022/07/29 13:34:48;;;;;;;4.10;2.35;;;;;;;;;;5001767;28;20113;-74
2022/07/29 13:37:13;;;;;;;4.75;2.30;;;;;;;;;;4999978;28;20088;-73
2022/07/29 13:39:39;;;;;;;4.32;1.85;;;;;;;;;;5003787;28;20710;-74
2022/07/29 13:42:06;;;;;;;4.78;2.95;;;;;;;;;;5000481;28;20065;-73
2022/07/29 13:44:31;;;;;;;4.28;2.38;;;;;;;;;;4995012;28;20041;-74
2022/07/29 13:46:58;;;;;;;3.53;2.00;;;;;;;;;;5004170;28;20021;-74
2022/07/29 13:49:24;;;;;;;6.10;1.92;;;;;;;;;;5001893;28;20061;-74
2022/07/29 13:51:49;;;;;;;3.47;1.90;;;;;;;;;;4997527;28;21264;-75
2022/07/29 13:54:15;;;;;;;3.15;1.70;;;;;;;;;;4998664;28;20037;-74
2022/07/29 13:56:41;;;;;;;3.10;1.80;;;;;;;;;;4997758;28;20113;-73
2022/07/29 13:59:07;;;;;;;3.28;1.70;;;;;;;;;;4997010;28;20036;-74
2022/07/29 14:01:34;;;;;;;5.70;1.98;;;;;;;;;;4996763;28;20038;-73
2022/07/29 14:03:59;;;;;;;4.00;1.50;;;;;;;;;;4999197;28;20109;-74
2022/07/29 14:06:24;;;;;;;4.78;1.65;;;;;;;;;;4997153;28;20044;-74
2022/07/29 14:08:50;;;;;;;2.47;1.63;;;;;;;;;;4994485;28;20054;-74
2022/07/29 14:11:15;;;;;;;2.33;1.38;;;;;;;;;;4994358;28;20034;-74
2022/07/29 14:13:41;;;;;;;2.38;1.52;;;;;;;;;;4993855;28;20038;-74
2022/07/29 14:16:06;;;;;;;2.00;1.25;;;;;;;;;;4998529;28;20033;-74
2022/07/29 14:18:32;;;;;;;3.88;1.40;;;;;;;;;;4993531;28;20034;-74
2022/07/29 14:20:58;;;;;;;4.90;1.60;;;;;;;;;;4996125;28;20676;-74
2022/07/29 14:23:23;;;;;;;2.92;1.30;;;;;;;;;;4997081;28;20022;-74
2022/07/29 14:25:48;;;;;;;3.72;1.50;;;;;;;;;;4997911;28;20029;-75
2022/07/29 14:28:14;;;;;;;3.28;1.50;;;;;;;;;;4995870;28;20500;-74
2022/07/29 14:30:39;;;;;;;3.00;1.40;;;;;;;;;;5003135;28;20025;-74
2022/07/29 14:33:05;;;;;;;4.22;1.60;;;;;;;;;;5005635;28;20025;-73
2022/07/29 14:35:30;;;;;;;2.55;1.33;;;;;;;;;;5007060;28;20034;-73
2022/07/29 14:37:56;;;;;;;2.70;1.48;;;;;;;;;;5007519;28;20092;-73
2022/07/29 14:40:22;;;;;;;3.30;1.80;;;;;;;;;;5006983;28;20038;-74
2022/07/29 14:42:48;;;;;;;3.25;1.65;;;;;;;;;;5007521;28;20026;-74
2022/07/29 14:45:13;;;;;;;3.10;1.50;;;;;;;;;;5008736;28;20413;-74
2022/07/29 14:47:39;;;;;;;3.53;1.50;;;;;;;;;;5004758;28;20057;-74
2022/07/29 14:50:06;;;;;;;2.40;1.42;;;;;;;;;;5006091;28;20398;-74
2022/07/29 14:52:31;;;;;;;2.75;1.65;;;;;;;;;;5006639;28;20557;-74
2022/07/29 14:54:57;;;;;;;3.85;1.80;;;;;;;;;;5004053;28;20057;-73